createdAt,value
2023-04-25T00:00:57.702Z,99773.23
2023-04-25T00:03:26.292Z,99772.45
2023-04-25T00:05:53.280Z,99768.17
2023-04-25T00:08:20.723Z,99769.53
2023-04-25T00:10:47.587Z,99767.34
2023-04-25T00:13:14.508Z,99766.06
2023-04-25T00:15:42.760Z,99761.52
2023-04-25T00:18:10.110Z,99760.99
2023-04-25T00:20:37.179Z,99759.14
2023-04-25T00:23:04.034Z,99756.89
2023-04-25T00:25:31.076Z,99758.34
2023-04-25T00:27:57.936Z,99755.34
2023-04-25T00:30:24.763Z,99753.11
2023-04-25T00:32:51.744Z,99748.66
2023-04-25T00:35:18.720Z,99740.08
2023-04-25T00:37:46.093Z,99740.23
2023-04-25T00:40:12.928Z,99736.00
2023-04-25T00:42:39.777Z,99736.50
2023-04-25T00:45:07.251Z,99740.38
2023-04-25T00:47:34.156Z,99738.93
2023-04-25T00:50:01.010Z,99740.25
2023-04-25T00:52:28.056Z,99735.80
2023-04-25T00:54:55.203Z,99740.90
2023-04-25T00:57:22.046Z,99740.13
2023-04-25T00:59:48.784Z,99741.89
2023-04-25T01:02:15.855Z,99747.91
2023-04-25T01:04:42.768Z,99741.85
2023-04-25T01:07:09.949Z,99741.56
2023-04-25T01:09:36.864Z,99739.47
2023-04-25T01:12:03.943Z,99744.60
2023-04-25T01:14:30.957Z,99735.21
2023-04-25T01:16:58.342Z,99740.42
2023-04-25T01:19:25.538Z,99745.48
2023-04-25T01:21:52.404Z,99742.45
2023-04-25T01:24:19.659Z,99739.80
2023-04-25T01:26:50.690Z,99740.16
2023-04-25T01:29:21.855Z,99740.32
2023-04-25T01:31:48.834Z,99739.09
2023-04-25T01:34:16.119Z,99739.58
2023-04-25T01:36:42.871Z,99736.76
2023-04-25T01:39:10.050Z,99729.33
2023-04-25T01:41:37.117Z,99729.48
2023-04-25T01:44:04.056Z,99722.19
2023-04-25T01:46:31.864Z,99725.73
2023-04-25T01:48:58.838Z,99721.11
2023-04-25T01:51:25.748Z,99717.06
2023-04-25T01:53:52.651Z,99714.02
2023-04-25T01:56:19.675Z,99712.98
2023-04-25T01:58:46.511Z,99712.63
2023-04-25T02:01:37.269Z,99710.92
2023-04-25T02:04:14.099Z,99712.29
2023-04-25T02:06:41.626Z,99708.34
2023-04-25T02:09:08.906Z,99702.10
2023-04-25T02:11:40.077Z,99699.14
2023-04-25T02:14:25.020Z,99703.97
2023-04-25T02:17:11.442Z,99700.66
2023-04-25T02:19:38.410Z,99700.81
2023-04-25T02:22:05.239Z,99696.93
2023-04-25T02:24:32.987Z,99698.48
2023-04-25T02:26:59.852Z,99697.84
2023-04-25T02:29:26.758Z,99695.94
2023-04-25T02:31:53.679Z,99694.35
2023-04-25T02:34:21.260Z,99693.05
2023-04-25T02:36:49.245Z,99692.72
2023-04-25T02:39:17.916Z,99691.02
2023-04-25T02:41:44.949Z,99692.17
2023-04-25T02:44:11.705Z,99686.41
2023-04-25T02:46:39.694Z,99690.37
2023-04-25T02:49:07.399Z,99691.10
2023-04-25T02:51:34.660Z,99690.96
2023-04-25T02:54:01.568Z,99691.70
2023-04-25T02:56:28.782Z,99693.57
2023-04-25T02:58:56.181Z,99692.61
2023-04-25T03:01:23.406Z,99698.77
2023-04-25T03:03:50.418Z,99702.03
2023-04-25T03:06:17.370Z,99705.65
2023-04-25T03:08:44.537Z,99703.14
2023-04-25T03:11:11.711Z,99703.61
2023-04-25T03:13:38.607Z,99702.86
2023-04-25T03:16:06.043Z,99703.22
2023-04-25T03:18:33.232Z,99706.99
2023-04-25T03:21:00.052Z,99702.34
2023-04-25T03:23:27.098Z,99699.47
2023-04-25T03:25:53.966Z,99697.39
2023-04-25T03:28:21.343Z,99699.15
2023-04-25T03:30:48.595Z,99702.11
2023-04-25T03:33:15.734Z,99705.02
2023-04-25T03:35:43.792Z,99703.48
2023-04-25T03:38:11.040Z,99701.02
2023-04-25T03:40:39.840Z,99699.48
2023-04-25T03:43:27.049Z,99700.05
2023-04-25T03:45:58.276Z,99695.13
2023-04-25T03:48:26.990Z,99691.46
2023-04-25T03:50:54.503Z,99693.02
2023-04-25T03:53:21.587Z,99693.70
2023-04-25T03:56:11.648Z,99694.14
2023-04-25T03:58:39.138Z,99687.89
2023-04-25T04:01:08.792Z,99688.81
2023-04-25T04:03:46.835Z,99689.89
2023-04-25T04:06:14.305Z,99690.35
2023-04-25T04:08:43.501Z,99686.64
2023-04-25T04:11:11.928Z,99683.42
2023-04-25T04:13:39.243Z,99678.52
2023-04-25T04:16:06.926Z,99678.59
2023-04-25T04:18:34.863Z,99678.82
2023-04-25T04:21:04.434Z,99680.80
2023-04-25T04:23:34.848Z,99681.06
2023-04-25T04:26:02.173Z,99675.14
2023-04-25T04:28:29.206Z,99673.04
2023-04-25T04:31:05.486Z,99669.41
2023-04-25T04:33:32.558Z,99670.55
2023-04-25T04:36:03.719Z,99671.43
2023-04-25T04:38:33.260Z,99673.96
2023-04-25T04:41:03.427Z,99673.14
2023-04-25T04:43:54.493Z,99669.66
2023-04-25T04:46:32.927Z,99670.73
2023-04-25T04:49:26.856Z,99670.41
2023-04-25T04:52:19.632Z,99671.08
2023-04-25T04:55:24.507Z,99671.14
2023-04-25T04:58:14.353Z,99669.34
2023-04-25T05:00:59.866Z,99667.52
2023-04-25T05:03:29.863Z,99669.90
2023-04-25T05:06:12.248Z,99668.55
2023-04-25T05:09:03.477Z,99665.36
2023-04-25T05:11:49.440Z,99666.04
2023-04-25T05:14:30.077Z,99670.70
2023-04-25T05:17:15.476Z,99668.71
2023-04-25T05:19:58.156Z,99666.56
2023-04-25T05:22:57.210Z,99667.02
2023-04-25T05:25:59.797Z,99663.23
2023-04-25T05:28:47.831Z,99663.48
2023-04-25T05:31:33.985Z,99658.90
2023-04-25T05:34:09.708Z,99659.70
2023-04-25T05:36:51.977Z,99657.05
2023-04-25T05:39:19.641Z,99654.34
2023-04-25T05:42:22.016Z,99651.56
2023-04-25T05:45:06.827Z,99648.50
2023-04-25T05:47:46.379Z,99646.64
2023-04-25T05:50:29.236Z,99646.02
2023-04-25T05:53:01.421Z,99641.38
2023-04-25T05:55:36.037Z,99640.05
2023-04-25T05:58:16.183Z,99642.10
2023-04-25T06:00:43.130Z,99637.73
2023-04-25T06:03:17.767Z,99631.70
2023-04-25T06:05:46.710Z,99631.61
2023-04-25T06:08:13.472Z,99631.02
2023-04-25T06:10:40.329Z,99632.04
2023-04-25T06:13:07.465Z,99633.54
2023-04-25T06:15:36.044Z,99635.46
2023-04-25T06:18:03.027Z,99633.34
2023-04-25T06:20:30.479Z,99631.21
2023-04-25T06:22:59.068Z,99624.86
2023-04-25T06:25:48.728Z,99619.26
2023-04-25T06:28:15.871Z,99616.81
2023-04-25T06:30:43.428Z,99615.74
2023-04-25T06:33:13.589Z,99618.33
2023-04-25T06:35:40.717Z,99618.64
2023-04-25T06:38:08.796Z,99615.90
2023-04-25T06:40:36.616Z,99619.88
2023-04-25T06:43:04.037Z,99619.38
2023-04-25T06:45:48.534Z,99615.69
2023-04-25T06:48:16.729Z,99614.02
2023-04-25T06:50:43.607Z,99614.95
2023-04-25T06:53:12.690Z,99612.48
2023-04-25T06:55:40.069Z,99610.89
2023-04-25T06:58:14.455Z,99614.02
2023-04-25T07:01:13.665Z,99615.00
2023-04-25T07:03:40.659Z,99616.30
2023-04-25T07:06:12.703Z,99617.91
2023-04-25T07:08:40.020Z,99617.72
2023-04-25T07:11:06.951Z,99613.97
2023-04-25T07:13:33.671Z,99612.62
2023-04-25T07:16:01.115Z,99613.85
2023-04-25T07:18:28.809Z,99618.67
2023-04-25T07:20:55.873Z,99618.67
2023-04-25T07:23:23.215Z,99617.27
2023-04-25T07:25:51.039Z,99613.64
2023-04-25T07:28:21.334Z,99611.82
2023-04-25T07:30:48.391Z,99613.08
2023-04-25T07:33:15.238Z,99612.44
2023-04-25T07:35:42.168Z,99609.65
2023-04-25T07:38:09.794Z,99613.77
2023-04-25T07:40:36.645Z,99611.90
2023-04-25T07:43:06.812Z,99612.08
2023-04-25T07:45:45.685Z,99610.23
2023-04-25T07:48:13.366Z,99613.16
2023-04-25T07:50:40.905Z,99610.88
2023-04-25T07:53:07.807Z,99602.38
2023-04-25T07:55:41.458Z,99602.36
2023-04-25T07:58:12.803Z,99600.98
2023-04-25T08:00:41.381Z,99597.04
2023-04-25T08:03:23.339Z,99594.85
2023-04-25T08:05:51.037Z,99594.79
2023-04-25T08:08:18.698Z,99590.71
2023-04-25T08:10:46.168Z,99592.30
2023-04-25T08:13:13.562Z,99593.80
2023-04-25T08:15:40.674Z,99585.45
2023-04-25T08:18:07.557Z,99584.62
2023-04-25T08:20:34.662Z,99583.67
2023-04-25T08:23:02.946Z,99580.94
2023-04-25T08:25:40.520Z,99579.80
2023-04-25T08:28:08.077Z,99573.59
2023-04-25T08:30:35.197Z,99570.57
2023-04-25T08:33:02.526Z,99565.24
2023-04-25T08:35:58.396Z,99562.66
2023-04-25T08:38:25.423Z,99560.77
2023-04-25T08:40:53.441Z,99561.89
2023-04-25T08:43:21.344Z,99560.96
2023-04-25T08:45:48.462Z,99559.82
2023-04-25T08:48:23.507Z,99562.73
2023-04-25T08:50:54.127Z,99564.58
2023-04-25T08:53:28.450Z,99563.08
2023-04-25T08:55:58.498Z,99561.64
2023-04-25T08:58:25.521Z,99560.48
2023-04-25T09:00:52.472Z,99557.61
2023-04-25T09:03:20.509Z,99555.02
2023-04-25T09:05:48.404Z,99551.85
2023-04-25T09:08:16.143Z,99550.02
2023-04-25T09:10:43.207Z,99547.95
2023-04-25T09:13:12.519Z,99538.41
2023-04-25T09:15:58.738Z,99540.70
2023-04-25T09:18:48.495Z,99535.77
2023-04-25T09:21:17.095Z,99535.36
2023-04-25T09:23:47.209Z,99533.70
2023-04-25T09:26:15.663Z,99533.05
2023-04-25T09:28:44.136Z,99530.85
2023-04-25T09:31:11.241Z,99530.48
2023-04-25T09:33:43.412Z,99527.66
2023-04-25T09:36:12.241Z,99529.86
2023-04-25T09:38:47.130Z,99530.04
2023-04-25T09:41:25.390Z,99527.04
2023-04-25T09:43:54.450Z,99522.70
2023-04-25T09:46:22.291Z,99527.34
2023-04-25T09:48:54.887Z,99524.11
2023-04-25T09:51:34.864Z,99520.80
2023-04-25T09:54:02.417Z,99517.53
2023-04-25T09:56:49.533Z,99512.58
2023-04-25T09:59:16.746Z,99507.28
2023-04-25T10:01:43.799Z,99506.14
2023-04-25T10:04:24.004Z,99498.06
2023-04-25T10:07:07.012Z,99494.44
2023-04-25T10:09:37.066Z,99494.14
2023-04-25T10:12:04.626Z,99489.31
2023-04-25T10:14:32.370Z,99490.67
2023-04-25T10:16:59.610Z,99492.06
2023-04-25T10:19:27.393Z,99491.02
2023-04-25T10:21:59.637Z,99487.80
2023-04-25T10:24:26.617Z,99489.16
2023-04-25T10:26:53.454Z,99483.46
2023-04-25T10:29:24.606Z,99482.32
2023-04-25T10:31:51.543Z,99479.58
2023-04-25T10:34:18.696Z,99478.69
2023-04-25T10:36:50.221Z,99477.29
2023-04-25T10:39:17.256Z,99478.91
2023-04-25T10:41:48.625Z,99477.34
2023-04-25T10:44:15.656Z,99476.27
2023-04-25T10:46:42.435Z,99477.48
2023-04-25T10:49:09.433Z,99476.70
2023-04-25T10:51:54.373Z,99475.42
2023-04-25T10:54:23.024Z,99471.98
2023-04-25T10:56:49.951Z,99475.95
2023-04-25T10:59:20.151Z,99471.34
2023-04-25T11:01:48.284Z,99468.85
2023-04-25T11:04:31.627Z,99466.77
2023-04-25T11:07:08.545Z,99461.70
2023-04-25T11:09:36.035Z,99458.39
2023-04-25T11:12:02.965Z,99456.50
2023-04-25T11:14:30.308Z,99450.90
2023-04-25T11:17:01.028Z,99448.36
2023-04-25T11:19:28.506Z,99443.54
2023-04-25T11:21:58.819Z,99439.48
2023-04-25T11:24:29.319Z,99434.59
2023-04-25T11:26:56.305Z,99435.39
2023-04-25T11:29:24.620Z,99433.70
2023-04-25T11:31:51.673Z,99433.17
2023-04-25T11:34:19.160Z,99434.60
2023-04-25T11:36:46.534Z,99433.52
2023-04-25T11:39:13.576Z,99436.60
2023-04-25T11:41:41.626Z,99428.50
2023-04-25T11:44:08.890Z,99429.81
2023-04-25T11:46:36.350Z,99425.94
2023-04-25T11:49:03.517Z,99422.57
2023-04-25T11:51:31.485Z,99417.91
2023-04-25T11:53:58.331Z,99413.77
2023-04-25T11:56:25.163Z,99411.84
2023-04-25T11:58:55.943Z,99415.27
2023-04-25T12:01:35.648Z,99409.02
2023-04-25T12:04:22.010Z,99401.38
2023-04-25T12:06:50.039Z,99404.41
2023-04-25T12:09:19.826Z,99397.41
2023-04-25T12:11:47.288Z,99392.69
2023-04-25T12:14:21.493Z,99390.91
2023-04-25T12:16:49.620Z,99392.27
2023-04-25T12:19:16.851Z,99385.11
2023-04-25T12:21:54.386Z,99380.51
2023-04-25T12:24:26.678Z,99382.02
2023-04-25T12:27:00.928Z,99379.44
2023-04-25T12:29:31.794Z,99375.79
2023-04-25T12:32:05.529Z,99367.00
2023-04-25T12:34:33.140Z,99366.30
2023-04-25T12:37:00.047Z,99364.52
2023-04-25T12:39:27.001Z,99365.93
2023-04-25T12:41:55.145Z,99365.29
2023-04-25T12:44:22.262Z,99363.53
2023-04-25T12:46:49.302Z,99362.52
2023-04-25T12:49:19.222Z,99356.97
2023-04-25T12:51:46.524Z,99356.75
2023-04-25T12:54:14.967Z,99353.83
2023-04-25T12:56:41.861Z,99351.77
2023-04-25T12:59:08.790Z,99347.17
2023-04-25T13:01:36.532Z,99346.36
2023-04-25T13:04:03.912Z,99342.84
2023-04-25T13:06:31.967Z,99340.13
2023-04-25T13:08:58.861Z,99336.87
2023-04-25T13:11:25.767Z,99335.19
2023-04-25T13:13:53.016Z,99336.44
2023-04-25T13:16:22.220Z,99333.68
2023-04-25T13:18:49.377Z,99332.66
2023-04-25T13:21:16.322Z,99333.33
2023-04-25T13:23:47.762Z,99335.18
2023-04-25T13:26:14.762Z,99331.69
2023-04-25T13:28:43.622Z,99329.94
2023-04-25T13:31:11.911Z,99326.59
2023-04-25T13:33:38.923Z,99321.36
2023-04-25T13:36:06.635Z,99320.42
2023-04-25T13:38:33.676Z,99323.59
2023-04-25T13:41:01.986Z,99319.83
2023-04-25T13:43:28.950Z,99315.29
2023-04-25T13:45:55.869Z,99310.05
2023-04-25T13:48:23.797Z,99312.40
2023-04-25T13:50:50.826Z,99309.90
2023-04-25T13:53:17.681Z,99310.08
2023-04-25T13:55:44.596Z,99304.74
2023-04-25T13:58:11.901Z,99303.15
2023-04-25T14:00:40.404Z,99303.59
2023-04-25T14:03:08.966Z,99302.07
2023-04-25T14:05:39.322Z,99302.49
2023-04-25T14:08:09.904Z,99302.00
2023-04-25T14:10:36.952Z,99303.95
2023-04-25T14:13:04.553Z,99299.67
2023-04-25T14:15:35.047Z,99299.63
2023-04-25T14:18:02.034Z,99297.02
2023-04-25T14:20:29.275Z,99298.27
2023-04-25T14:22:57.236Z,99293.23
2023-04-25T14:25:24.525Z,99291.53
2023-04-25T14:27:51.484Z,99289.79
2023-04-25T14:30:19.166Z,99288.58
2023-04-25T14:32:46.632Z,99290.71
2023-04-25T14:35:13.809Z,99285.73
2023-04-25T14:37:41.226Z,99282.10
2023-04-25T14:40:11.583Z,99280.65
2023-04-25T14:42:38.774Z,99281.46
2023-04-25T14:45:06.233Z,99283.38
2023-04-25T14:47:33.196Z,99280.78
2023-04-25T14:50:00.197Z,99276.38
2023-04-25T14:52:27.376Z,99279.48
2023-04-25T14:54:54.292Z,99275.25
2023-04-25T14:57:21.162Z,99272.28
2023-04-25T14:59:48.344Z,99266.81
2023-04-25T15:02:15.292Z,99267.13
2023-04-25T15:04:42.860Z,99265.94
2023-04-25T15:07:09.963Z,99266.52
2023-04-25T15:09:36.661Z,99264.77
2023-04-25T15:12:03.481Z,99262.54
2023-04-25T15:14:30.341Z,99260.45
2023-04-25T15:16:57.147Z,99256.80
2023-04-25T15:19:24.472Z,99257.67
2023-04-25T15:21:51.229Z,99252.64
2023-04-25T15:24:34.008Z,99249.68
2023-04-25T15:27:05.404Z,99248.89
2023-04-25T15:29:32.436Z,99247.64
2023-04-25T15:31:59.333Z,99248.61
2023-04-25T15:34:26.852Z,99245.21
2023-04-25T15:36:53.887Z,99243.27
2023-04-25T15:39:20.618Z,99239.54
2023-04-25T15:41:47.687Z,99239.64
2023-04-25T15:44:17.024Z,99236.45
2023-04-25T15:46:45.927Z,99235.59
2023-04-25T15:49:13.934Z,99230.35
2023-04-25T15:51:40.893Z,99226.92
2023-04-25T15:54:08.264Z,99225.20
2023-04-25T15:56:35.115Z,99225.33
2023-04-25T15:59:02.026Z,99223.45
2023-04-25T16:01:31.153Z,99223.98
2023-04-25T16:03:58.892Z,99222.34
2023-04-25T16:06:26.625Z,99222.73
2023-04-25T16:08:53.790Z,99224.36
2023-04-25T16:11:20.880Z,99221.23
2023-04-25T16:13:47.732Z,99218.92
2023-04-25T16:16:15.038Z,99220.41
2023-04-25T16:18:42.118Z,99224.55
2023-04-25T16:21:09.083Z,99221.92
2023-04-25T16:23:35.976Z,99221.14
2023-04-25T16:26:02.770Z,99223.33
2023-04-25T16:28:30.194Z,99222.48
2023-04-25T16:30:57.011Z,99225.20
2023-04-25T16:33:23.917Z,99223.79
2023-04-25T16:35:52.666Z,99226.77
2023-04-25T16:38:19.815Z,99225.66
2023-04-25T16:40:46.842Z,99227.91
2023-04-25T16:43:13.707Z,99227.98
2023-04-25T16:45:43.798Z,99229.04
2023-04-25T16:48:10.715Z,99227.73
2023-04-25T16:50:37.692Z,99223.80
2023-04-25T16:53:04.441Z,99223.24
2023-04-25T16:55:31.532Z,99224.75
2023-04-25T16:57:58.736Z,99226.46
2023-04-25T17:00:25.885Z,99228.36
2023-04-25T17:02:52.858Z,99230.98
2023-04-25T17:05:19.917Z,99232.19
2023-04-25T17:07:46.776Z,99232.88
2023-04-25T17:10:13.586Z,99231.75
2023-04-25T17:12:40.380Z,99237.34
2023-04-25T17:15:07.576Z,99237.41
2023-04-25T17:17:34.540Z,99241.14
2023-04-25T17:20:01.343Z,99241.52
2023-04-25T17:22:30.316Z,99243.99
2023-04-25T17:25:15.625Z,99243.39
2023-04-25T17:27:44.083Z,99248.41
2023-04-25T17:30:15.336Z,99247.23
2023-04-25T17:32:48.340Z,99253.73
2023-04-25T17:35:19.336Z,99255.64
2023-04-25T17:37:46.951Z,99260.59
2023-04-25T17:40:13.861Z,99263.86
2023-04-25T17:42:41.527Z,99263.20
2023-04-25T17:45:09.481Z,99266.97
2023-04-25T17:47:36.867Z,99268.12
2023-04-25T17:50:05.000Z,99267.76
2023-04-25T17:52:31.864Z,99270.80
2023-04-25T17:54:59.039Z,99274.20
2023-04-25T17:57:27.690Z,99276.11
2023-04-25T17:59:57.967Z,99276.89
2023-04-25T18:02:25.248Z,99278.95
2023-04-25T18:04:52.700Z,99280.86
2023-04-25T18:07:19.607Z,99280.95
2023-04-25T18:09:46.623Z,99282.43
2023-04-25T18:12:15.476Z,99283.69
2023-04-25T18:14:42.482Z,99281.83
2023-04-25T18:17:10.057Z,99287.69
2023-04-25T18:19:37.175Z,99291.59
2023-04-25T18:22:04.316Z,99292.86
2023-04-25T18:24:32.607Z,99290.83
2023-04-25T18:27:02.725Z,99291.05
2023-04-25T18:29:33.467Z,99292.70
2023-04-25T18:32:02.088Z,99293.79
2023-04-25T18:34:31.494Z,99291.41
2023-04-25T18:36:58.585Z,99292.24
2023-04-25T18:39:26.588Z,99295.49
2023-04-25T18:42:01.357Z,99295.30
2023-04-25T18:44:36.692Z,99298.05
2023-04-25T18:47:03.615Z,99295.54
2023-04-25T18:49:31.434Z,99293.34
2023-04-25T18:51:58.699Z,99303.56
2023-04-25T18:54:25.654Z,99303.68
2023-04-25T18:56:52.496Z,99311.63
2023-04-25T18:59:19.627Z,99310.84
2023-04-25T19:01:47.060Z,99313.16
2023-04-25T19:04:15.040Z,99313.77
2023-04-25T19:06:42.354Z,99312.80
2023-04-25T19:09:10.399Z,99317.19
2023-04-25T19:11:37.828Z,99316.48
2023-04-25T19:14:04.773Z,99319.36
2023-04-25T19:16:38.787Z,99317.69
2023-04-25T19:19:06.253Z,99320.66
2023-04-25T19:21:33.244Z,99322.30
2023-04-25T19:24:01.611Z,99318.73
2023-04-25T19:26:28.603Z,99320.85
2023-04-25T19:29:05.995Z,99322.79
2023-04-25T19:31:34.173Z,99318.40
2023-04-25T19:34:01.219Z,99319.11
2023-04-25T19:36:28.861Z,99318.52
2023-04-25T19:39:02.268Z,99322.61
2023-04-25T19:41:29.446Z,99323.19
2023-04-25T19:43:56.271Z,99323.67
2023-04-25T19:46:23.761Z,99321.36
2023-04-25T19:48:50.768Z,99324.68
2023-04-25T19:51:17.821Z,99324.02
2023-04-25T19:53:44.682Z,99323.96
2023-04-25T19:56:11.485Z,99325.20
2023-04-25T19:58:38.265Z,99324.55
2023-04-25T20:01:05.095Z,99323.84
2023-04-25T20:03:32.116Z,99326.22
2023-04-25T20:05:59.003Z,99328.45
2023-04-25T20:08:26.284Z,99330.55
2023-04-25T20:10:53.168Z,99331.09
2023-04-25T20:13:20.013Z,99330.48
2023-04-25T20:15:47.012Z,99331.86
2023-04-25T20:18:13.987Z,99330.51
2023-04-25T20:20:41.155Z,99330.33
2023-04-25T20:23:07.999Z,99332.52
2023-04-25T20:25:34.706Z,99335.80
2023-04-25T20:28:01.599Z,99335.15
2023-04-25T20:30:28.411Z,99334.59
2023-04-25T20:32:55.284Z,99335.61
2023-04-25T20:35:23.071Z,99334.90
2023-04-25T20:37:51.000Z,99338.94
2023-04-25T20:40:18.318Z,99338.54
2023-04-25T20:42:46.240Z,99333.27
2023-04-25T20:45:14.622Z,99333.30
2023-04-25T20:47:43.027Z,99329.67
2023-04-25T20:50:11.099Z,99325.79
2023-04-25T20:52:38.762Z,99325.84
2023-04-25T20:55:06.684Z,99324.88
2023-04-25T20:57:33.396Z,99331.44
2023-04-25T21:00:00.209Z,99330.89
2023-04-25T21:02:27.548Z,99331.77
2023-04-25T21:04:54.680Z,99336.93
2023-04-25T21:07:21.641Z,99336.19
2023-04-25T21:09:48.572Z,99341.92
2023-04-25T21:12:15.483Z,99342.94
2023-04-25T21:14:42.454Z,99343.13
2023-04-25T21:17:09.447Z,99346.17
2023-04-25T21:19:36.436Z,99345.46
2023-04-25T21:22:03.712Z,99341.23
2023-04-25T21:24:33.328Z,99344.05
2023-04-25T21:27:01.302Z,99347.05
2023-04-25T21:29:28.213Z,99347.11
2023-04-25T21:31:55.158Z,99345.27
2023-04-25T21:34:22.823Z,99347.54
2023-04-25T21:36:49.765Z,99345.60
2023-04-25T21:39:16.526Z,99345.45
2023-04-25T21:41:44.599Z,99346.65
2023-04-25T21:44:12.766Z,99349.84
2023-04-25T21:46:39.751Z,99347.50
2023-04-25T21:49:07.165Z,99347.90
2023-04-25T21:51:34.213Z,99351.59
2023-04-25T21:54:05.366Z,99351.11
2023-04-25T21:56:32.803Z,99352.46
2023-04-25T21:58:59.649Z,99349.92
2023-04-25T22:01:27.801Z,99347.72
2023-04-25T22:03:55.214Z,99346.73
2023-04-25T22:06:22.424Z,99347.23
2023-04-25T22:08:49.460Z,99348.58
2023-04-25T22:11:17.354Z,99350.88
2023-04-25T22:13:45.136Z,99346.77
2023-04-25T22:16:12.387Z,99345.36
2023-04-25T22:18:40.529Z,99342.06
2023-04-25T22:21:07.379Z,99339.67
2023-04-25T22:23:35.041Z,99342.36
2023-04-25T22:26:02.762Z,99338.56
2023-04-25T22:28:29.732Z,99336.33
2023-04-25T22:30:56.467Z,99333.66
2023-04-25T22:33:23.315Z,99329.23
2023-04-25T22:35:50.201Z,99333.20
2023-04-25T22:38:17.516Z,99332.13
2023-04-25T22:40:48.097Z,99333.72
2023-04-25T22:43:15.731Z,99333.45
2023-04-25T22:45:42.977Z,99329.36
2023-04-25T22:48:09.984Z,99322.13
2023-04-25T22:50:39.845Z,99323.52
2023-04-25T22:53:07.374Z,99320.81
2023-04-25T22:55:34.315Z,99322.63
2023-04-25T22:58:01.473Z,99325.51
2023-04-25T23:00:30.402Z,99325.80
2023-04-25T23:02:58.571Z,99325.61
2023-04-25T23:05:25.604Z,99323.61
2023-04-25T23:07:52.411Z,99322.70
2023-04-25T23:10:19.318Z,99321.42
2023-04-25T23:12:46.136Z,99320.96
2023-04-25T23:15:13.783Z,99321.66
2023-04-25T23:17:40.951Z,99322.68
2023-04-25T23:20:10.796Z,99326.52
2023-04-25T23:22:38.394Z,99327.58
2023-04-25T23:25:05.833Z,99328.86
2023-04-25T23:27:33.122Z,99330.91
2023-04-25T23:30:00.176Z,99328.05
2023-04-25T23:32:27.208Z,99326.77
2023-04-25T23:34:54.064Z,99325.46
2023-04-25T23:37:20.985Z,99324.74
2023-04-25T23:39:49.327Z,99328.52
2023-04-25T23:42:16.733Z,99326.89
2023-04-25T23:44:43.885Z,99328.73
2023-04-25T23:47:13.166Z,99327.46
2023-04-25T23:49:40.628Z,99328.67
2023-04-25T23:52:08.084Z,99330.39
2023-04-25T23:54:34.856Z,99333.69
2023-04-25T23:57:04.438Z,99332.80
2023-04-25T23:59:31.794Z,99331.42
